createdAt,value
2017-05-23T00:00:27.435Z,0
2017-05-23T00:01:39.997Z,0
2017-05-23T00:02:52.527Z,0
2017-05-23T00:04:04.825Z,0
2017-05-23T00:05:17.403Z,0
2017-05-23T00:06:29.956Z,0
2017-05-23T00:07:42.552Z,0
2017-05-23T00:08:55.106Z,0
2017-05-23T00:10:07.669Z,0
2017-05-23T00:11:19.348Z,0
2017-05-23T00:12:31.401Z,0
2017-05-23T00:13:43.939Z,0
2017-05-23T00:14:56.161Z,0
2017-05-23T00:16:08.418Z,0
2017-05-23T00:17:20.721Z,0
2017-05-23T00:18:33.317Z,0
2017-05-23T00:19:45.864Z,0
2017-05-23T00:20:58.440Z,0
2017-05-23T00:22:11.061Z,0
2017-05-23T00:23:23.631Z,0
2017-05-23T00:24:36.172Z,0
2017-05-23T00:25:48.172Z,0
2017-05-23T00:27:00.440Z,0
2017-05-23T00:28:13.033Z,0
2017-05-23T00:29:25.886Z,0
2017-05-23T00:30:38.496Z,0
2017-05-23T00:31:51.078Z,0
2017-05-23T00:33:03.650Z,0
2017-05-23T00:34:15.914Z,0
2017-05-23T00:35:28.190Z,0
2017-05-23T00:36:40.762Z,0
2017-05-23T00:37:53.326Z,0
2017-05-23T00:39:05.897Z,0
2017-05-23T00:40:18.466Z,0
2017-05-23T00:41:31.032Z,0
2017-05-23T00:42:43.587Z,0
2017-05-23T00:43:56.156Z,0
2017-05-23T00:45:08.719Z,0
2017-05-23T00:46:21.604Z,0
2017-05-23T00:47:34.169Z,0
2017-05-23T00:48:46.715Z,0
2017-05-23T00:49:59.253Z,0
2017-05-23T00:51:11.888Z,0
2017-05-23T00:52:24.433Z,0
2017-05-23T00:53:37.005Z,0
2017-05-23T00:54:49.571Z,0
2017-05-23T00:56:02.164Z,0
2017-05-23T00:57:14.442Z,0
2017-05-23T00:58:26.407Z,0
2017-05-23T00:59:38.973Z,0
2017-05-23T01:00:51.632Z,0
2017-05-23T01:02:04.461Z,0
2017-05-23T01:03:16.741Z,0
2017-05-23T01:04:28.986Z,0
2017-05-23T01:05:41.233Z,0
2017-05-23T01:06:53.805Z,0
2017-05-23T01:08:06.067Z,0
2017-05-23T01:09:18.618Z,0
2017-05-23T01:10:31.221Z,0
2017-05-23T01:11:43.753Z,0
2017-05-23T01:12:56.033Z,0
2017-05-23T01:14:08.571Z,0
2017-05-23T01:15:21.125Z,0
2017-05-23T01:16:33.676Z,0
2017-05-23T01:17:46.291Z,0
2017-05-23T01:18:58.845Z,0
2017-05-23T01:20:11.432Z,0
2017-05-23T01:21:23.427Z,0
2017-05-23T01:22:35.991Z,0
2017-05-23T01:23:48.276Z,0
2017-05-23T01:25:00.543Z,0
2017-05-23T01:26:13.064Z,0
2017-05-23T01:27:25.634Z,0
2017-05-23T01:28:38.161Z,0
2017-05-23T01:29:50.410Z,0
2017-05-23T01:31:02.971Z,0
2017-05-23T01:32:15.499Z,0
2017-05-23T01:33:28.092Z,0
2017-05-23T01:34:40.986Z,0
2017-05-23T01:35:53.529Z,0
2017-05-23T01:37:06.107Z,0
2017-05-23T01:38:18.420Z,0
2017-05-23T01:39:30.998Z,0
2017-05-23T01:40:43.523Z,0
2017-05-23T01:41:56.084Z,0
2017-05-23T01:43:08.323Z,0
2017-05-23T01:44:20.826Z,0
2017-05-23T01:45:33.678Z,0
2017-05-23T01:46:46.266Z,0
2017-05-23T01:47:58.545Z,0
2017-05-23T01:49:11.066Z,0
2017-05-23T01:50:23.642Z,0
2017-05-23T01:51:35.602Z,0
2017-05-23T01:52:48.174Z,0
2017-05-23T01:54:00.419Z,0
2017-05-23T01:55:12.964Z,0
2017-05-23T01:56:25.535Z,0
2017-05-23T01:57:38.082Z,0
2017-05-23T01:58:50.334Z,0
2017-05-23T02:00:02.928Z,0
2017-05-23T02:01:15.250Z,0
2017-05-23T02:02:27.838Z,0
2017-05-23T02:03:40.428Z,0
2017-05-23T02:04:52.657Z,0
2017-05-23T02:06:05.233Z,0
2017-05-23T02:07:17.780Z,0
2017-05-23T02:08:30.356Z,0
2017-05-23T02:09:42.973Z,0
2017-05-23T02:10:55.593Z,0
2017-05-23T02:12:07.992Z,0
2017-05-23T02:13:20.536Z,0
2017-05-23T02:14:33.147Z,0
2017-05-23T02:15:45.745Z,0
2017-05-23T02:16:58.339Z,4
2017-05-23T02:18:10.337Z,4
2017-05-23T02:19:22.313Z,4
2017-05-23T02:20:34.579Z,0
2017-05-23T02:21:47.150Z,4
2017-05-23T02:22:59.371Z,4
2017-05-23T02:24:11.666Z,4
2017-05-23T02:25:24.229Z,4
2017-05-23T02:26:36.458Z,8
2017-05-23T02:27:48.987Z,8
2017-05-23T02:29:01.856Z,8
2017-05-23T02:30:14.404Z,8
2017-05-23T02:31:26.691Z,16
2017-05-23T02:32:39.269Z,16
2017-05-23T02:33:51.825Z,20
2017-05-23T02:35:04.081Z,20
2017-05-23T02:36:16.674Z,20
2017-05-23T02:37:29.214Z,24
2017-05-23T02:38:41.799Z,28
2017-05-23T02:39:54.061Z,32
2017-05-23T02:41:06.641Z,40
2017-05-23T02:42:19.253Z,48
2017-05-23T02:43:31.219Z,52
2017-05-23T02:44:43.803Z,60
2017-05-23T02:45:56.374Z,68
2017-05-23T02:47:08.964Z,76
2017-05-23T02:48:21.541Z,84
2017-05-23T02:49:32.905Z,96
2017-05-23T02:50:45.651Z,104
2017-05-23T02:51:58.247Z,120
2017-05-23T02:53:10.799Z,132
2017-05-23T02:54:23.347Z,144
2017-05-23T02:55:35.584Z,160
2017-05-23T02:56:47.534Z,180
2017-05-23T02:57:59.778Z,192
2017-05-23T02:59:12.321Z,212
2017-05-23T03:00:24.918Z,236
2017-05-23T03:01:37.163Z,264
2017-05-23T03:02:49.410Z,292
2017-05-23T03:04:01.388Z,328
2017-05-23T03:05:13.751Z,368
2017-05-23T03:06:25.426Z,408
2017-05-23T03:07:37.995Z,452
2017-05-23T03:08:50.197Z,492
2017-05-23T03:10:02.773Z,536
2017-05-23T03:11:15.056Z,576
2017-05-23T03:12:27.934Z,620
2017-05-23T03:13:40.498Z,668
2017-05-23T03:14:52.144Z,716
2017-05-23T03:16:04.674Z,772
2017-05-23T03:17:17.219Z,820
2017-05-23T03:18:29.432Z,876
2017-05-23T03:19:41.686Z,936
2017-05-23T03:20:53.955Z,1000
2017-05-23T03:22:06.550Z,1064
2017-05-23T03:23:18.816Z,1136
2017-05-23T03:24:31.368Z,1216
2017-05-23T03:25:43.964Z,1304
2017-05-23T03:26:56.478Z,1404
2017-05-23T03:28:08.142Z,1500
2017-05-23T03:29:20.377Z,1600
2017-05-23T03:30:32.648Z,1696
2017-05-23T03:31:45.218Z,1796
2017-05-23T03:32:57.751Z,1896
2017-05-23T03:34:10.562Z,2004
2017-05-23T03:35:23.131Z,2108
2017-05-23T03:36:35.706Z,2220
2017-05-23T03:37:48.293Z,2332
2017-05-23T03:39:00.819Z,2440
2017-05-23T03:40:13.101Z,2548
2017-05-23T03:41:25.654Z,2644
2017-05-23T03:42:37.903Z,2736
2017-05-23T03:43:50.453Z,2816
2017-05-23T03:45:02.985Z,2876
2017-05-23T03:46:15.269Z,2900
2017-05-23T03:47:27.844Z,2912
2017-05-23T03:48:40.089Z,2912
2017-05-23T03:49:52.656Z,2908
2017-05-23T03:51:04.905Z,2900
2017-05-23T03:52:17.524Z,2900
2017-05-23T03:53:30.095Z,2916
2017-05-23T03:54:42.716Z,2944
2017-05-23T03:55:55.283Z,2984
2017-05-23T03:57:07.527Z,3024
2017-05-23T03:58:19.780Z,3072
2017-05-23T03:59:32.043Z,3132
2017-05-23T04:00:44.588Z,3184
2017-05-23T04:01:57.166Z,3236
2017-05-23T04:03:09.706Z,3292
2017-05-23T04:04:22.283Z,3348
2017-05-23T04:05:34.297Z,3400
2017-05-23T04:06:46.817Z,3452
2017-05-23T04:07:59.446Z,3508
2017-05-23T04:09:12.022Z,3596
2017-05-23T04:10:24.566Z,3712
2017-05-23T04:11:37.127Z,3876
2017-05-23T04:12:49.674Z,4064
2017-05-23T04:14:02.195Z,4272
2017-05-23T04:15:14.446Z,4480
2017-05-23T04:16:26.961Z,4664
2017-05-23T04:17:39.558Z,4832
2017-05-23T04:18:52.186Z,4968
2017-05-23T04:20:04.773Z,5080
2017-05-23T04:21:17.019Z,5136
2017-05-23T04:22:29.572Z,5128
2017-05-23T04:23:42.167Z,5072
2017-05-23T04:24:54.688Z,5008
2017-05-23T04:26:07.261Z,4972
2017-05-23T04:27:19.516Z,4972
2017-05-23T04:28:32.044Z,5004
2017-05-23T04:29:44.315Z,5080
2017-05-23T04:30:56.543Z,5212
2017-05-23T04:32:09.088Z,5376
2017-05-23T04:33:21.022Z,5556
2017-05-23T04:34:33.651Z,5772
2017-05-23T04:35:46.201Z,5980
2017-05-23T04:36:58.459Z,6196
2017-05-23T04:38:10.997Z,6396
2017-05-23T04:39:22.975Z,6600
2017-05-23T04:40:34.928Z,6776
2017-05-23T04:41:47.500Z,6924
2017-05-23T04:42:59.454Z,7028
2017-05-23T04:44:11.740Z,7100
2017-05-23T04:45:23.988Z,7136
2017-05-23T04:46:35.976Z,7136
2017-05-23T04:47:48.536Z,7092
2017-05-23T04:49:01.107Z,7012
2017-05-23T04:50:13.403Z,6904
2017-05-23T04:51:25.967Z,6808
2017-05-23T04:52:38.214Z,6812
2017-05-23T04:53:50.759Z,6860
2017-05-23T04:55:03.054Z,6912
2017-05-23T04:56:15.326Z,7056
2017-05-23T04:57:27.922Z,7256
2017-05-23T04:58:40.168Z,7472
2017-05-23T04:59:52.770Z,7692
2017-05-23T05:01:05.641Z,7908
2017-05-23T05:02:18.204Z,8112
2017-05-23T05:03:29.876Z,8232
2017-05-23T05:04:42.147Z,8268
2017-05-23T05:05:54.675Z,8256
2017-05-23T05:07:06.916Z,8196
2017-05-23T05:08:19.484Z,8060
2017-05-23T05:09:31.174Z,7904
2017-05-23T05:10:43.683Z,7680
2017-05-23T05:11:56.248Z,7524
2017-05-23T05:13:08.797Z,7984
2017-05-23T05:14:20.771Z,8268
2017-05-23T05:15:33.003Z,7908
2017-05-23T05:16:45.581Z,8180
2017-05-23T05:17:57.809Z,9440
2017-05-23T05:19:10.407Z,9912
2017-05-23T05:20:22.351Z,9420
2017-05-23T05:21:34.896Z,8892
2017-05-23T05:22:47.436Z,9500
2017-05-23T05:23:59.964Z,12192
2017-05-23T05:25:12.535Z,12920
2017-05-23T05:26:24.804Z,12768
2017-05-23T05:27:36.826Z,9876
2017-05-23T05:28:48.782Z,7488
2017-05-23T05:30:01.068Z,7188
2017-05-23T05:31:13.462Z,7072
2017-05-23T05:32:26.004Z,7104
2017-05-23T05:33:37.956Z,7588
2017-05-23T05:34:50.255Z,8396
2017-05-23T05:36:01.914Z,9052
2017-05-23T05:37:14.141Z,9100
2017-05-23T05:38:26.082Z,8840
2017-05-23T05:39:38.656Z,9532
2017-05-23T05:40:51.175Z,9688
2017-05-23T05:42:03.464Z,9992
2017-05-23T05:43:16.043Z,7908
2017-05-23T05:44:28.313Z,7700
2017-05-23T05:45:40.589Z,7236
2017-05-23T05:46:53.178Z,6888
2017-05-23T05:48:05.475Z,6880
2017-05-23T05:49:17.696Z,6896
2017-05-23T05:50:30.223Z,6920
2017-05-23T05:51:42.764Z,7048
2017-05-23T05:52:54.693Z,7092
2017-05-23T05:54:06.647Z,7140
2017-05-23T05:55:18.919Z,7408
2017-05-23T05:56:30.896Z,7644
2017-05-23T05:57:43.467Z,7756
2017-05-23T05:58:55.739Z,9588
2017-05-23T06:00:07.401Z,10160
2017-05-23T06:01:19.341Z,8484
2017-05-23T06:02:31.628Z,9228
2017-05-23T06:03:44.177Z,8692
2017-05-23T06:04:56.461Z,8620
2017-05-23T06:06:09.041Z,9916
2017-05-23T06:07:20.686Z,10488
2017-05-23T06:08:32.924Z,10812
2017-05-23T06:09:45.201Z,12260
2017-05-23T06:10:57.148Z,13256
2017-05-23T06:12:09.699Z,13556
2017-05-23T06:13:21.989Z,21280
2017-05-23T06:14:34.241Z,28960
2017-05-23T06:15:46.481Z,29984
2017-05-23T06:16:59.033Z,19104
2017-05-23T06:18:11.604Z,27680
2017-05-23T06:19:23.570Z,32864
2017-05-23T06:20:35.246Z,23456
2017-05-23T06:21:47.786Z,15808
2017-05-23T06:23:00.025Z,26176
2017-05-23T06:24:12.604Z,33408
2017-05-23T06:25:24.873Z,31744
2017-05-23T06:26:36.802Z,29632
2017-05-23T06:27:49.372Z,40480
2017-05-23T06:29:01.961Z,29504
2017-05-23T06:30:14.210Z,26912
2017-05-23T06:31:26.810Z,21824
2017-05-23T06:32:38.457Z,31296
2017-05-23T06:33:50.427Z,38400
2017-05-23T06:35:02.671Z,47168
2017-05-23T06:36:14.662Z,29312
2017-05-23T06:37:26.926Z,41280
2017-05-23T06:38:39.224Z,40128
2017-05-23T06:39:51.499Z,34176
2017-05-23T06:41:03.795Z,34560
2017-05-23T06:42:16.373Z,32608
2017-05-23T06:43:28.938Z,34624
2017-05-23T06:44:41.759Z,36736
2017-05-23T06:45:54.304Z,39744
2017-05-23T06:47:06.534Z,43456
2017-05-23T06:48:18.803Z,43680
2017-05-23T06:49:31.375Z,45568
2017-05-23T06:50:43.963Z,47712
2017-05-23T06:51:56.185Z,49120
2017-05-23T06:53:08.140Z,52256
2017-05-23T06:54:20.388Z,51584
2017-05-23T06:55:32.697Z,50432
2017-05-23T06:56:45.273Z,49280
2017-05-23T06:57:57.270Z,49440
2017-05-23T06:59:09.842Z,54880
2017-05-23T07:00:22.707Z,55552
2017-05-23T07:01:35.257Z,53984
2017-05-23T07:02:47.801Z,52832
2017-05-23T07:04:00.067Z,55552
2017-05-23T07:05:12.669Z,52768
2017-05-23T07:06:24.936Z,51776
2017-05-23T07:07:37.162Z,49536
2017-05-23T07:08:49.727Z,45792
2017-05-23T07:10:01.974Z,53184
2017-05-23T07:11:13.920Z,56288
2017-05-23T07:12:26.496Z,58080
2017-05-23T07:13:39.038Z,58464
2017-05-23T07:14:51.606Z,60672
2017-05-23T07:16:03.252Z,59808
2017-05-23T07:17:15.224Z,61088
2017-05-23T07:18:27.786Z,50336
2017-05-23T07:19:39.748Z,59424
2017-05-23T07:20:52.067Z,61472
2017-05-23T07:22:04.613Z,67552
2017-05-23T07:23:16.556Z,61568
2017-05-23T07:24:28.774Z,63808
2017-05-23T07:25:41.025Z,61184
2017-05-23T07:26:53.291Z,58912
2017-05-23T07:28:05.562Z,58848
2017-05-23T07:29:17.539Z,54176
2017-05-23T07:30:29.834Z,40736
2017-05-23T07:31:42.110Z,44352
2017-05-23T07:32:54.752Z,54400
2017-05-23T07:34:07.323Z,55648
2017-05-23T07:35:19.318Z,55328
2017-05-23T07:36:31.889Z,56512
2017-05-23T07:37:44.480Z,53664
2017-05-23T07:38:56.774Z,56352
2017-05-23T07:40:09.130Z,57664
2017-05-23T07:41:21.709Z,55168
2017-05-23T07:42:34.264Z,55808
2017-05-23T07:43:46.864Z,52736
2017-05-23T07:44:59.105Z,56032
2017-05-23T07:46:11.380Z,51936
2017-05-23T07:47:23.328Z,51552
2017-05-23T07:48:35.599Z,55008
2017-05-23T07:49:47.612Z,58400
2017-05-23T07:50:59.896Z,68704
2017-05-23T07:52:12.481Z,64640
2017-05-23T07:53:24.426Z,69600
2017-05-23T07:54:36.395Z,70304
2017-05-23T07:55:49.018Z,73312
2017-05-23T07:57:01.619Z,74400
2017-05-23T07:58:13.592Z,75392
2017-05-23T07:59:26.163Z,76224
2017-05-23T08:00:38.722Z,77248
2017-05-23T08:01:51.322Z,76768
2017-05-23T08:03:03.626Z,74432
2017-05-23T08:04:15.621Z,73184
2017-05-23T08:05:27.891Z,69760
2017-05-23T08:06:40.480Z,70368
2017-05-23T08:07:52.160Z,65440
2017-05-23T08:09:04.449Z,55264
2017-05-23T08:10:16.450Z,46016
2017-05-23T08:11:29.046Z,53152
2017-05-23T08:12:41.669Z,57248
2017-05-23T08:13:53.935Z,65664
2017-05-23T08:15:05.932Z,64096
2017-05-23T08:16:17.305Z,67872
2017-05-23T08:17:29.925Z,66560
2017-05-23T08:18:42.540Z,66880
2017-05-23T08:19:54.513Z,65984
2017-05-23T08:21:06.807Z,66144
2017-05-23T08:22:18.778Z,69152
2017-05-23T08:23:31.031Z,71232
2017-05-23T08:24:43.595Z,77728
2017-05-23T08:25:56.190Z,78336
2017-05-23T08:27:08.479Z,79744
2017-05-23T08:28:20.489Z,79136
2017-05-23T08:29:33.098Z,75584
2017-05-23T08:30:45.701Z,79008
2017-05-23T08:31:57.994Z,84608
2017-05-23T08:33:10.541Z,82784
2017-05-23T08:34:22.543Z,80896
2017-05-23T08:35:34.852Z,75008
2017-05-23T08:36:47.079Z,69568
2017-05-23T08:37:59.606Z,49568
2017-05-23T08:39:11.877Z,55936
2017-05-23T08:40:24.468Z,56672
2017-05-23T08:41:36.713Z,52832
2017-05-23T08:42:48.992Z,64864
2017-05-23T08:44:01.560Z,72480
2017-05-23T08:45:13.808Z,71104
2017-05-23T08:46:26.397Z,65344
2017-05-23T08:47:38.366Z,61312
2017-05-23T08:48:50.988Z,59840
2017-05-23T08:50:03.583Z,56832
2017-05-23T08:51:15.523Z,55200
2017-05-23T08:52:27.825Z,52000
2017-05-23T08:53:40.422Z,47392
2017-05-23T08:54:52.400Z,41024
2017-05-23T08:56:04.695Z,38752
2017-05-23T08:57:17.334Z,41952
2017-05-23T08:58:29.929Z,43200
2017-05-23T08:59:42.759Z,46400
2017-05-23T09:00:55.078Z,46784
2017-05-23T09:02:07.354Z,45824
2017-05-23T09:03:19.938Z,50432
2017-05-23T09:04:31.935Z,51168
2017-05-23T09:05:44.530Z,51072
2017-05-23T09:06:57.077Z,55424
2017-05-23T09:08:09.629Z,56640
2017-05-23T09:09:21.328Z,55040
2017-05-23T09:10:33.314Z,54688
2017-05-23T09:11:45.668Z,56512
2017-05-23T09:12:58.012Z,55424
2017-05-23T09:14:10.013Z,54912
2017-05-23T09:15:22.578Z,51328
2017-05-23T09:16:34.561Z,53088
2017-05-23T09:17:47.142Z,57600
2017-05-23T09:18:59.714Z,61376
2017-05-23T09:20:12.313Z,61440
2017-05-23T09:21:24.878Z,62560
2017-05-23T09:22:37.174Z,58080
2017-05-23T09:23:49.737Z,46048
2017-05-23T09:25:01.983Z,66176
2017-05-23T09:26:14.215Z,31808
2017-05-23T09:27:26.761Z,48352
2017-05-23T09:28:39.024Z,20960
2017-05-23T09:29:51.592Z,14844
2017-05-23T09:31:04.150Z,51488
2017-05-23T09:32:15.862Z,74240
2017-05-23T09:33:28.407Z,77088
2017-05-23T09:34:40.053Z,15588
2017-05-23T09:35:52.588Z,13868
2017-05-23T09:37:04.525Z,13620
2017-05-23T09:38:16.750Z,16840
2017-05-23T09:39:28.722Z,19616
2017-05-23T09:40:41.288Z,77664
2017-05-23T09:41:53.537Z,76736
2017-05-23T09:43:06.079Z,76640
2017-05-23T09:44:18.350Z,74400
2017-05-23T09:45:30.617Z,20000
2017-05-23T09:46:43.189Z,19008
2017-05-23T09:47:55.763Z,22272
2017-05-23T09:49:08.310Z,20320
2017-05-23T09:50:20.254Z,78272
2017-05-23T09:51:32.222Z,20416
2017-05-23T09:52:44.500Z,19680
2017-05-23T09:53:56.748Z,25632
2017-05-23T09:55:09.289Z,28256
2017-05-23T09:56:21.229Z,72384
2017-05-23T09:57:33.500Z,80864
2017-05-23T09:58:46.072Z,75040
2017-05-23T09:59:58.040Z,74240
2017-05-23T10:01:10.291Z,74080
2017-05-23T10:02:22.837Z,69216
2017-05-23T10:03:35.089Z,65536
2017-05-23T10:04:47.648Z,33536
2017-05-23T10:05:59.901Z,30240
2017-05-23T10:07:12.447Z,61184
2017-05-23T10:08:24.696Z,29472
2017-05-23T10:09:37.286Z,55744
2017-05-23T10:10:49.237Z,82304
2017-05-23T10:12:01.480Z,78368
2017-05-23T10:13:14.057Z,77472
2017-05-23T10:14:26.306Z,75904
2017-05-23T10:15:38.869Z,45120
2017-05-23T10:16:50.817Z,70240
2017-05-23T10:18:03.078Z,72832
2017-05-23T10:19:15.649Z,76512
2017-05-23T10:20:27.607Z,74656
2017-05-23T10:21:39.549Z,76960
2017-05-23T10:22:51.862Z,77920
2017-05-23T10:24:04.414Z,81024
2017-05-23T10:25:16.378Z,79136
2017-05-23T10:26:28.633Z,63904
2017-05-23T10:27:40.278Z,77856
2017-05-23T10:28:52.526Z,78432
2017-05-23T10:30:05.112Z,76384
2017-05-23T10:31:17.366Z,47296
2017-05-23T10:32:29.911Z,25184
2017-05-23T10:33:42.457Z,60096
2017-05-23T10:34:54.995Z,69120
2017-05-23T10:36:06.977Z,41088
2017-05-23T10:37:19.804Z,59232
2017-05-23T10:38:32.395Z,74848
2017-05-23T10:39:43.711Z,80000
2017-05-23T10:40:55.658Z,80928
2017-05-23T10:42:07.307Z,79616
2017-05-23T10:43:19.276Z,83904
2017-05-23T10:44:30.951Z,14392
2017-05-23T10:45:43.308Z,18556
2017-05-23T10:46:55.240Z,75264
2017-05-23T10:48:07.808Z,69184
2017-05-23T10:49:20.058Z,61408
2017-05-23T10:50:32.626Z,59008
2017-05-23T10:51:44.576Z,64192
2017-05-23T10:52:57.199Z,74560
2017-05-23T10:54:09.464Z,77952
2017-05-23T10:55:21.711Z,77056
2017-05-23T10:56:33.983Z,78016
2017-05-23T10:57:46.252Z,61504
2017-05-23T10:58:58.467Z,80960
2017-05-23T11:00:10.721Z,80480
2017-05-23T11:01:23.304Z,78368
2017-05-23T11:02:34.962Z,77024
2017-05-23T11:03:47.533Z,81536
2017-05-23T11:04:59.843Z,81440
2017-05-23T11:06:12.114Z,76192
2017-05-23T11:07:24.384Z,73440
2017-05-23T11:08:36.638Z,78080
2017-05-23T11:09:48.902Z,78112
2017-05-23T11:11:01.497Z,83904
2017-05-23T11:12:13.755Z,82336
2017-05-23T11:13:26.024Z,19424
2017-05-23T11:14:38.297Z,19552
2017-05-23T11:15:50.866Z,66592
2017-05-23T11:17:03.430Z,89504
2017-05-23T11:18:15.681Z,81216
2017-05-23T11:19:28.254Z,85696
2017-05-23T11:20:41.068Z,84960
2017-05-23T11:21:53.027Z,77952
2017-05-23T11:23:05.314Z,69408
2017-05-23T11:24:17.890Z,69472
2017-05-23T11:25:30.459Z,76032
2017-05-23T11:26:42.735Z,77856
2017-05-23T11:27:55.016Z,80384
2017-05-23T11:29:07.297Z,77216
2017-05-23T11:30:19.567Z,15060
2017-05-23T11:31:32.189Z,78112
2017-05-23T11:32:44.156Z,78784
2017-05-23T11:33:56.678Z,77472
2017-05-23T11:35:08.922Z,76704
2017-05-23T11:36:21.148Z,75232
2017-05-23T11:37:33.692Z,74208
2017-05-23T11:38:45.337Z,72032
2017-05-23T11:39:57.889Z,59328
2017-05-23T11:41:09.928Z,65440
2017-05-23T11:42:22.449Z,67488
2017-05-23T11:43:34.699Z,66112
2017-05-23T11:44:46.669Z,65184
2017-05-23T11:45:59.237Z,66016
2017-05-23T11:47:11.811Z,72928
2017-05-23T11:48:24.079Z,78240
2017-05-23T11:49:36.629Z,76544
2017-05-23T11:50:49.220Z,74976
2017-05-23T11:52:01.795Z,74336
2017-05-23T11:53:14.068Z,72608
2017-05-23T11:54:26.309Z,71136
2017-05-23T11:55:38.584Z,68064
2017-05-23T11:56:50.534Z,68512
2017-05-23T11:58:02.812Z,68864
2017-05-23T11:59:15.141Z,68064
2017-05-23T12:00:27.738Z,68928
2017-05-23T12:01:40.287Z,69152
2017-05-23T12:02:52.558Z,64832
2017-05-23T12:04:04.231Z,61696
2017-05-23T12:05:16.198Z,64128
2017-05-23T12:06:28.474Z,63072
2017-05-23T12:07:41.031Z,61376
2017-05-23T12:08:53.287Z,60832
2017-05-23T12:10:04.971Z,61280
2017-05-23T12:11:16.927Z,62624
2017-05-23T12:12:29.497Z,59136
2017-05-23T12:13:42.063Z,59744
2017-05-23T12:14:54.030Z,60096
2017-05-23T12:16:06.031Z,58656
2017-05-23T12:17:18.585Z,59872
2017-05-23T12:18:31.151Z,61216
2017-05-23T12:19:43.702Z,62656
2017-05-23T12:20:55.962Z,62464
2017-05-23T12:22:08.216Z,61632
2017-05-23T12:23:20.477Z,61536
2017-05-23T12:24:33.034Z,62176
2017-05-23T12:25:45.332Z,61824
2017-05-23T12:26:57.297Z,66752
2017-05-23T12:28:09.894Z,69504
2017-05-23T12:29:22.166Z,66112
2017-05-23T12:30:33.510Z,65088
2017-05-23T12:31:46.061Z,68544
2017-05-23T12:32:58.028Z,68512
2017-05-23T12:34:09.999Z,69184
2017-05-23T12:35:22.249Z,67072
2017-05-23T12:36:34.521Z,59840
2017-05-23T12:37:47.104Z,54784
2017-05-23T12:38:59.060Z,19552
2017-05-23T12:40:11.333Z,42016
2017-05-23T12:41:23.592Z,56192
2017-05-23T12:42:36.166Z,62016
2017-05-23T12:43:48.419Z,51392
2017-05-23T12:45:00.690Z,56896
2017-05-23T12:46:13.260Z,55616
2017-05-23T12:47:25.848Z,56704
2017-05-23T12:48:37.524Z,55008
2017-05-23T12:49:50.070Z,51712
2017-05-23T12:51:02.616Z,53440
2017-05-23T12:52:13.986Z,53280
2017-05-23T12:53:26.278Z,60544
2017-05-23T12:54:38.549Z,61184
2017-05-23T12:55:50.226Z,47040
2017-05-23T12:57:02.463Z,49504
2017-05-23T12:58:14.717Z,30688
2017-05-23T12:59:27.267Z,52768
2017-05-23T13:00:39.829Z,56640
2017-05-23T13:01:52.083Z,47584
2017-05-23T13:03:04.651Z,51808
2017-05-23T13:04:16.297Z,49344
2017-05-23T13:05:28.873Z,49600
2017-05-23T13:06:41.437Z,56992
2017-05-23T13:07:53.385Z,56448
2017-05-23T13:09:05.629Z,55584
2017-05-23T13:10:17.900Z,55904
2017-05-23T13:11:30.196Z,24736
2017-05-23T13:12:42.446Z,58816
2017-05-23T13:13:54.692Z,55552
2017-05-23T13:15:06.362Z,55424
2017-05-23T13:16:18.924Z,49152
2017-05-23T13:17:31.493Z,44224
2017-05-23T13:18:43.747Z,37952
2017-05-23T13:19:55.994Z,46208
2017-05-23T13:21:08.542Z,36256
2017-05-23T13:22:21.084Z,25024
2017-05-23T13:23:33.649Z,35392
2017-05-23T13:24:46.219Z,24768
2017-05-23T13:25:58.769Z,26240
2017-05-23T13:27:10.696Z,45504
2017-05-23T13:28:23.265Z,36320
2017-05-23T13:29:35.813Z,29536
2017-05-23T13:30:48.081Z,24832
2017-05-23T13:32:00.357Z,23296
2017-05-23T13:33:12.897Z,22432
2017-05-23T13:34:25.148Z,22272
2017-05-23T13:35:37.694Z,49248
2017-05-23T13:36:50.253Z,40480
2017-05-23T13:38:02.500Z,46272
2017-05-23T13:39:14.731Z,42016
2017-05-23T13:40:27.277Z,47520
2017-05-23T13:41:39.799Z,35712
2017-05-23T13:42:52.340Z,58592
2017-05-23T13:44:04.561Z,43584
2017-05-23T13:45:17.110Z,30048
2017-05-23T13:46:29.384Z,28672
2017-05-23T13:47:41.624Z,38624
2017-05-23T13:48:53.578Z,35808
2017-05-23T13:50:04.950Z,22656
2017-05-23T13:51:17.215Z,21568
2017-05-23T13:52:29.775Z,19104
2017-05-23T13:53:41.721Z,18976
2017-05-23T13:54:53.397Z,19648
2017-05-23T13:56:05.654Z,21664
2017-05-23T13:57:17.294Z,26912
2017-05-23T13:58:29.540Z,22240
2017-05-23T13:59:41.504Z,20768
2017-05-23T14:00:53.754Z,20864
2017-05-23T14:02:05.996Z,19232
2017-05-23T14:03:17.947Z,23328
2017-05-23T14:04:30.519Z,16396
2017-05-23T14:05:42.768Z,18016
2017-05-23T14:06:55.313Z,37344
2017-05-23T14:08:07.561Z,49152
2017-05-23T14:09:19.822Z,37216
2017-05-23T14:10:32.072Z,38304
2017-05-23T14:11:44.323Z,34624
2017-05-23T14:12:56.265Z,21984
2017-05-23T14:14:08.802Z,22944
2017-05-23T14:15:21.060Z,22368
2017-05-23T14:16:33.619Z,23616
2017-05-23T14:17:45.271Z,21728
2017-05-23T14:18:57.520Z,19200
2017-05-23T14:20:09.743Z,20704
2017-05-23T14:21:21.985Z,19424
2017-05-23T14:22:34.532Z,20128
2017-05-23T14:23:46.472Z,19424
2017-05-23T14:24:58.119Z,22496
2017-05-23T14:26:09.771Z,30784
2017-05-23T14:27:22.036Z,29312
2017-05-23T14:28:34.282Z,23680
2017-05-23T14:29:46.570Z,21856
2017-05-23T14:30:58.828Z,16124
2017-05-23T14:32:11.074Z,15232
2017-05-23T14:33:23.324Z,18432
2017-05-23T14:34:35.866Z,15768
2017-05-23T14:35:48.112Z,17984
2017-05-23T14:37:00.379Z,19552
2017-05-23T14:38:12.608Z,19712
2017-05-23T14:39:25.178Z,19776
2017-05-23T14:40:37.746Z,19616
2017-05-23T14:41:50.297Z,18688
2017-05-23T14:43:02.240Z,18336
2017-05-23T14:44:14.485Z,18560
2017-05-23T14:45:27.024Z,17824
2017-05-23T14:46:38.995Z,17248
2017-05-23T14:47:50.950Z,16104
2017-05-23T14:49:03.517Z,15184
2017-05-23T14:50:15.779Z,15068
2017-05-23T14:51:28.333Z,15256
2017-05-23T14:52:40.875Z,15044
2017-05-23T14:53:52.853Z,14200
2017-05-23T14:55:04.525Z,13440
2017-05-23T14:56:16.188Z,13256
2017-05-23T14:57:28.468Z,13596
2017-05-23T14:58:41.038Z,13816
2017-05-23T14:59:53.309Z,14748
2017-05-23T15:01:05.279Z,15100
2017-05-23T15:02:17.800Z,14628
2017-05-23T15:03:30.069Z,13588
2017-05-23T15:04:42.619Z,12704
2017-05-23T15:05:54.563Z,12260
2017-05-23T15:07:07.133Z,12140
2017-05-23T15:08:19.402Z,12316
2017-05-23T15:09:31.941Z,12136
2017-05-23T15:10:44.497Z,12092
2017-05-23T15:11:57.106Z,12636
2017-05-23T15:13:09.364Z,13256
2017-05-23T15:14:21.009Z,13920
2017-05-23T15:15:33.551Z,14504
2017-05-23T15:16:45.794Z,15008
2017-05-23T15:17:57.743Z,15288
2017-05-23T15:19:09.974Z,15248
2017-05-23T15:20:22.241Z,14716
2017-05-23T15:21:34.507Z,14096
2017-05-23T15:22:46.457Z,13420
2017-05-23T15:23:59.003Z,12936
2017-05-23T15:25:11.545Z,12432
2017-05-23T15:26:23.769Z,12000
2017-05-23T15:27:36.342Z,11644
2017-05-23T15:28:48.585Z,11384
2017-05-23T15:30:01.144Z,11268
2017-05-23T15:31:13.074Z,11232
2017-05-23T15:32:25.298Z,11300
2017-05-23T15:33:36.950Z,11424
2017-05-23T15:34:49.503Z,11676
2017-05-23T15:36:01.132Z,12008
2017-05-23T15:37:13.396Z,12360
2017-05-23T15:38:25.952Z,12712
2017-05-23T15:39:37.617Z,12960
2017-05-23T15:40:50.169Z,13312
2017-05-23T15:42:02.741Z,13804
2017-05-23T15:43:14.690Z,14284
2017-05-23T15:44:27.245Z,14632
2017-05-23T15:45:39.499Z,15012
2017-05-23T15:46:51.750Z,15360
2017-05-23T15:48:04.294Z,15560
2017-05-23T15:49:16.268Z,15860
2017-05-23T15:50:28.835Z,15876
2017-05-23T15:51:40.484Z,15776
2017-05-23T15:52:53.054Z,15760
2017-05-23T15:54:04.721Z,15448
2017-05-23T15:55:17.245Z,15292
2017-05-23T15:56:29.188Z,15224
2017-05-23T15:57:41.734Z,15344
2017-05-23T15:58:54.287Z,15548
2017-05-23T16:00:06.903Z,15716